Naval Submarine Base, Connecticut
Current Conditions -  °F | °C
As of 10:56 AM on Saturday 20 Dec 2014 (Local Time) from KGON Reporting Station
Haze Haze  
Wind Chill: 24°   Ceiling: 2800
Heat Index: 31°   Visibility: 6mi
Dew Point: 23°   Wind: 7mph
Humidity: 72%   Direction: 360°N
Pressure: 30.26"   Gusts: NA
Location:  41.3499°N, 72.0759°W
Report Text: KGON 201556Z 36006KT 6SM HZ OVC028 M01/M05 A3026 RMK AO2 SLP247 T10061050
Loading
Personal Weather Stations






























Interactive Weather Map New forecast layout! Learn more

10-Day Weather Forecast

Advertisements
Track Severe Weather on mobile